PWSweather.com
Personal Weather Stations
Station Observations
METEOC500
Santo Antonio, FunchalPT 2020

Santo AntonioFunchalPT 2020

Lat: 32.678227, Lon: -16.945054

Elevation: 1669.94751

Station Type: WH Series

High Low Average
Temperature 72.9°F22.7°C 61.7°F16.5°C 66.3°F19.1°C
Dew Point 64.4°F18.0°C 55.4°F13.0°C 60.8°F16.0°C
Winds 7.8 mph 12.6 kmh Calm Calm 3.0 mph SW4.8 kmh SW
Wind Gusts 12.5 mph20.1 kmh -- 8.0 mph12.9 kmh
Humidity 89% 69% 83%
Pressure 30.19 in1022.4 mb 30.08 in1018.6 mb -
Precipitation 0.00 in0.0 mm - -
Hour Temp Dew Point Humidity Winds Wind Gusts Pressure Precip Precip Rate Daily Precip Total
12:10 AM 62.4°F16.9°C 58.1°F14.5°C 86% 4.0 mph N6.4 kmh N 7.6 mph12.2 kmh 30.11 in1019.6 mb 0.00 in0.0 mm 0.00 in0.0 mm 0.00 in0.0 mm
12:25 AM 63.0°F17.2°C 58.1°F14.5°C 84% 1.3 mph NNW2.1 kmh NNW 7.6 mph12.2 kmh 30.11 in1019.6 mb 0.00 in0.0 mm 0.00 in0.0 mm 0.00 in0.0 mm
12:41 AM 63.9°F17.7°C 59.0°F15.0°C 84% 2.2 mph N3.5 kmh N 4.9 mph7.9 kmh 30.12 in1020.0 mb 0.00 in0.0 mm 0.00 in0.0 mm 0.00 in0.0 mm
12:56 AM 64.2°F17.9°C 59.4°F15.2°C 84% 5.4 mph NNW8.7 kmh NNW 7.6 mph12.2 kmh 30.11 in1019.6 mb 0.00 in0.0 mm 0.00 in0.0 mm 0.00 in0.0 mm
01:11 AM 64.4°F18.0°C 59.5°F15.3°C 84% 6.0 mph NNW9.7 kmh NNW 10.1 mph16.3 kmh 30.11 in1019.6 mb 0.00 in0.0 mm 0.00 in0.0 mm 0.00 in0.0 mm
01:26 AM 64.6°F18.1°C 59.7°F15.4°C 84% 4.0 mph NNW6.4 kmh NNW 10.1 mph16.3 kmh 30.11 in1019.6 mb 0.00 in0.0 mm 0.00 in0.0 mm 0.00 in0.0 mm
01:42 AM 64.8°F18.2°C 59.5°F15.3°C 83% 4.5 mph N7.2 kmh N 10.1 mph16.3 kmh 30.10 in1019.3 mb 0.00 in0.0 mm 0.00 in0.0 mm 0.00 in0.0 mm
01:57 AM 64.8°F18.2°C 59.5°F15.3°C 83% 3.4 mph NW5.5 kmh NW 7.6 mph12.2 kmh 30.10 in1019.3 mb 0.00 in0.0 mm 0.00 in0.0 mm 0.00 in0.0 mm
02:12 AM 64.8°F18.2°C 59.5°F15.3°C 83% 3.8 mph NNW6.1 kmh NNW 7.6 mph12.2 kmh 30.09 in1019.0 mb 0.00 in0.0 mm 0.00 in0.0 mm 0.00 in0.0 mm
02:27 AM 64.9°F18.3°C 59.7°F15.4°C 83% Calm Calm 4.9 mph7.9 kmh 30.09 in1019.0 mb 0.00 in0.0 mm 0.00 in0.0 mm 0.00 in0.0 mm
02:42 AM 65.1°F18.4°C 59.5°F15.3°C 82% Calm Calm -- 30.09 in1019.0 mb 0.00 in0.0 mm 0.00 in0.0 mm 0.00 in0.0 mm
02:57 AM 64.9°F18.3°C 59.4°F15.2°C 82% Calm Calm -- 30.09 in1019.0 mb 0.00 in0.0 mm 0.00 in0.0 mm 0.00 in0.0 mm
03:13 AM 64.9°F18.3°C 59.7°F15.4°C 83% 2.2 mph NW3.5 kmh NW 7.6 mph12.2 kmh 30.09 in1019.0 mb 0.00 in0.0 mm 0.00 in0.0 mm 0.00 in0.0 mm
03:28 AM 64.9°F18.3°C 59.7°F15.4°C 83% Calm Calm 7.6 mph12.2 kmh 30.08 in1018.6 mb 0.00 in0.0 mm 0.00 in0.0 mm 0.00 in0.0 mm
03:43 AM 64.9°F18.3°C 59.7°F15.4°C 83% Calm Calm 4.9 mph7.9 kmh 30.08 in1018.6 mb 0.00 in0.0 mm 0.00 in0.0 mm 0.00 in0.0 mm
03:58 AM 64.8°F18.2°C 59.9°F15.5°C 84% Calm Calm -- 30.09 in1019.0 mb 0.00 in0.0 mm 0.00 in0.0 mm 0.00 in0.0 mm
04:13 AM 64.8°F18.2°C 59.5°F15.3°C 83% 2.9 mph NW4.7 kmh NW 7.6 mph12.2 kmh 30.08 in1018.6 mb 0.00 in0.0 mm 0.00 in0.0 mm 0.00 in0.0 mm
04:29 AM 64.4°F18.0°C 59.2°F15.1°C 83% 3.8 mph NNW6.1 kmh NNW 10.1 mph16.3 kmh 30.08 in1018.6 mb 0.00 in0.0 mm 0.00 in0.0 mm 0.00 in0.0 mm
04:44 AM 63.9°F17.7°C 59.0°F15.0°C 84% 2.9 mph NNW4.7 kmh NNW 7.6 mph12.2 kmh 30.08 in1018.6 mb 0.00 in0.0 mm 0.00 in0.0 mm 0.00 in0.0 mm
04:59 AM 63.5°F17.5°C 58.8°F14.9°C 85% 3.8 mph NNW6.1 kmh NNW 7.6 mph12.2 kmh 30.08 in1018.6 mb 0.00 in0.0 mm 0.00 in0.0 mm 0.00 in0.0 mm
05:14 AM 63.1°F17.3°C 58.3°F14.6°C 84% 4.9 mph NNW7.9 kmh NNW 10.1 mph16.3 kmh 30.09 in1019.0 mb 0.00 in0.0 mm 0.00 in0.0 mm 0.00 in0.0 mm
05:29 AM 62.8°F17.1°C 57.9°F14.4°C 84% 6.0 mph NNW9.7 kmh NNW 10.1 mph16.3 kmh 30.09 in1019.0 mb 0.00 in0.0 mm 0.00 in0.0 mm 0.00 in0.0 mm
05:45 AM 62.6°F17.0°C 57.7°F14.3°C 84% 5.4 mph NNW8.7 kmh NNW 10.1 mph16.3 kmh 30.09 in1019.0 mb 0.00 in0.0 mm 0.00 in0.0 mm 0.00 in0.0 mm
06:00 AM 62.6°F17.0°C 57.7°F14.3°C 84% 4.7 mph NNW7.6 kmh NNW 10.1 mph16.3 kmh 30.10 in1019.3 mb 0.00 in0.0 mm 0.00 in0.0 mm 0.00 in0.0 mm
06:15 AM 62.6°F17.0°C 57.7°F14.3°C 84% 6.3 mph NNW10.1 kmh NNW 10.1 mph16.3 kmh 30.09 in1019.0 mb 0.00 in0.0 mm 0.00 in0.0 mm 0.00 in0.0 mm
06:30 AM 62.4°F16.9°C 57.6°F14.2°C 84% 4.9 mph N7.9 kmh N 10.1 mph16.3 kmh 30.10 in1019.3 mb 0.00 in0.0 mm 0.00 in0.0 mm 0.00 in0.0 mm
06:45 AM 62.4°F16.9°C 57.6°F14.2°C 84% 6.0 mph NNW9.7 kmh NNW 10.1 mph16.3 kmh 30.10 in1019.3 mb 0.00 in0.0 mm 0.00 in0.0 mm 0.00 in0.0 mm
07:01 AM 62.4°F16.9°C 57.9°F14.4°C 85% 5.4 mph NNW8.7 kmh NNW 7.6 mph12.2 kmh 30.10 in1019.3 mb 0.00 in0.0 mm 0.00 in0.0 mm 0.00 in0.0 mm
07:16 AM 62.8°F17.1°C 58.3°F14.6°C 85% 4.5 mph NNW7.2 kmh NNW 7.6 mph12.2 kmh 30.11 in1019.6 mb 0.00 in0.0 mm 0.00 in0.0 mm 0.00 in0.0 mm
07:31 AM 63.1°F17.3°C 58.3°F14.6°C 84% 3.4 mph NW5.5 kmh NW 7.6 mph12.2 kmh 30.11 in1019.6 mb 0.00 in0.0 mm 0.00 in0.0 mm 0.00 in0.0 mm
07:46 AM 63.5°F17.5°C 57.6°F14.2°C 81% 4.0 mph N6.4 kmh N 7.6 mph12.2 kmh 30.11 in1019.6 mb 0.00 in0.0 mm 0.00 in0.0 mm 0.00 in0.0 mm
08:01 AM 64.0°F17.8°C 57.4°F14.1°C 79% 2.9 mph N4.7 kmh N 7.6 mph12.2 kmh 30.11 in1019.6 mb 0.00 in0.0 mm 0.00 in0.0 mm 0.00 in0.0 mm
08:17 AM 64.2°F17.9°C 57.6°F14.2°C 79% 1.8 mph N2.9 kmh N 4.9 mph7.9 kmh 30.12 in1020.0 mb 0.00 in0.0 mm 0.00 in0.0 mm 0.00 in0.0 mm
08:32 AM 65.3°F18.5°C 58.6°F14.8°C 79% Calm Calm 4.9 mph7.9 kmh 30.12 in1020.0 mb 0.00 in0.0 mm 0.00 in0.0 mm 0.00 in0.0 mm
08:47 AM 67.8°F19.9°C 59.9°F15.5°C 76% 2.2 mph ESE3.5 kmh ESE 4.9 mph7.9 kmh 30.13 in1020.3 mb 0.00 in0.0 mm 0.00 in0.0 mm 0.00 in0.0 mm
09:02 AM 69.8°F21.0°C 61.5°F16.4°C 75% Calm Calm 4.9 mph7.9 kmh 30.13 in1020.3 mb 0.00 in0.0 mm 0.00 in0.0 mm 0.00 in0.0 mm
09:17 AM 70.7°F21.5°C 62.4°F16.9°C 75% 2.5 mph ESE4.0 kmh ESE 4.9 mph7.9 kmh 30.14 in1020.7 mb 0.00 in0.0 mm 0.00 in0.0 mm 0.00 in0.0 mm
09:33 AM 70.7°F21.5°C 62.4°F16.9°C 75% 1.6 mph S2.6 kmh S 7.6 mph12.2 kmh 30.14 in1020.7 mb 0.00 in0.0 mm 0.00 in0.0 mm 0.00 in0.0 mm
09:48 AM 70.3°F21.3°C 60.8°F16.0°C 72% 5.4 mph SE8.7 kmh SE 7.6 mph12.2 kmh 30.14 in1020.7 mb 0.00 in0.0 mm 0.00 in0.0 mm 0.00 in0.0 mm
10:03 AM 71.6°F22.0°C 60.8°F16.0°C 69% 1.8 mph NNE2.9 kmh NNE 10.1 mph16.3 kmh 30.15 in1021.0 mb 0.00 in0.0 mm 0.00 in0.0 mm 0.00 in0.0 mm
10:18 AM 72.7°F22.6°C 61.9°F16.6°C 69% 6.5 mph SSW10.5 kmh SSW 12.5 mph20.1 kmh 30.15 in1021.0 mb 0.00 in0.0 mm 0.00 in0.0 mm 0.00 in0.0 mm
10:33 AM 72.7°F22.6°C 63.1°F17.3°C 72% 4.9 mph S7.9 kmh S 10.1 mph16.3 kmh 30.15 in1021.0 mb 0.00 in0.0 mm 0.00 in0.0 mm 0.00 in0.0 mm
10:49 AM 72.7°F22.6°C 62.2°F16.8°C 70% 1.8 mph E2.9 kmh E 12.5 mph20.1 kmh 30.16 in1021.3 mb 0.00 in0.0 mm 0.00 in0.0 mm 0.00 in0.0 mm
11:04 AM 72.9°F22.7°C 63.3°F17.4°C 72% 6.3 mph SSW10.1 kmh SSW 12.5 mph20.1 kmh 30.17 in1021.7 mb 0.00 in0.0 mm 0.00 in0.0 mm 0.00 in0.0 mm
11:19 AM 72.3°F22.4°C 64.4°F18.0°C 76% 5.4 mph ESE8.7 kmh ESE 10.1 mph16.3 kmh 30.17 in1021.7 mb 0.00 in0.0 mm 0.00 in0.0 mm 0.00 in0.0 mm
11:34 AM 71.2°F21.8°C 63.7°F17.6°C 77% 5.4 mph SSW8.7 kmh SSW 12.5 mph20.1 kmh 30.16 in1021.3 mb 0.00 in0.0 mm 0.00 in0.0 mm 0.00 in0.0 mm
11:49 AM 70.7°F21.5°C 63.1°F17.3°C 77% 6.0 mph SE9.7 kmh SE 10.1 mph16.3 kmh 30.16 in1021.3 mb 0.00 in0.0 mm 0.00 in0.0 mm 0.00 in0.0 mm
12:05 PM 70.5°F21.4°C 64.0°F17.8°C 80% 7.8 mph SE12.6 kmh SE 10.1 mph16.3 kmh 30.16 in1021.3 mb 0.00 in0.0 mm 0.00 in0.0 mm 0.00 in0.0 mm
12:20 PM 70.0°F21.1°C 63.5°F17.5°C 80% 5.4 mph ESE8.7 kmh ESE 10.1 mph16.3 kmh 30.16 in1021.3 mb 0.00 in0.0 mm 0.00 in0.0 mm 0.00 in0.0 mm
12:35 PM 69.4°F20.8°C 63.3°F17.4°C 81% 4.5 mph SE7.2 kmh SE 10.1 mph16.3 kmh 30.15 in1021.0 mb 0.00 in0.0 mm 0.00 in0.0 mm 0.00 in0.0 mm
12:50 PM 69.3°F20.7°C 63.1°F17.3°C 81% 6.3 mph S10.1 kmh S 10.1 mph16.3 kmh 30.15 in1021.0 mb 0.00 in0.0 mm 0.00 in0.0 mm 0.00 in0.0 mm
01:05 PM 69.3°F20.7°C 63.5°F17.5°C 82% 6.0 mph SE9.7 kmh SE 12.5 mph20.1 kmh 30.15 in1021.0 mb 0.00 in0.0 mm 0.00 in0.0 mm 0.00 in0.0 mm
01:20 PM 68.9°F20.5°C 63.5°F17.5°C 83% 2.9 mph S4.7 kmh S 10.1 mph16.3 kmh 30.15 in1021.0 mb 0.00 in0.0 mm 0.00 in0.0 mm 0.00 in0.0 mm
01:36 PM 68.7°F20.4°C 63.7°F17.6°C 84% 7.6 mph S12.2 kmh S 10.1 mph16.3 kmh 30.15 in1021.0 mb 0.00 in0.0 mm 0.00 in0.0 mm 0.00 in0.0 mm
01:51 PM 68.7°F20.4°C 63.7°F17.6°C 84% 4.9 mph S7.9 kmh S 10.1 mph16.3 kmh 30.14 in1020.7 mb 0.00 in0.0 mm 0.00 in0.0 mm 0.00 in0.0 mm
02:06 PM 68.5°F20.3°C 64.2°F17.9°C 86% 2.2 mph SSE3.5 kmh SSE 10.1 mph16.3 kmh 30.15 in1021.0 mb 0.00 in0.0 mm 0.00 in0.0 mm 0.00 in0.0 mm
02:21 PM 68.4°F20.2°C 64.4°F18.0°C 87% 6.3 mph SW10.1 kmh SW 10.1 mph16.3 kmh 30.15 in1021.0 mb 0.00 in0.0 mm 0.00 in0.0 mm 0.00 in0.0 mm
02:36 PM 68.0°F20.0°C 63.7°F17.6°C 86% 1.3 mph SE2.1 kmh SE 10.1 mph16.3 kmh 30.14 in1020.7 mb 0.00 in0.0 mm 0.00 in0.0 mm 0.00 in0.0 mm
02:51 PM 67.8°F19.9°C 63.9°F17.7°C 87% 4.5 mph E7.2 kmh E 7.6 mph12.2 kmh 30.15 in1021.0 mb 0.00 in0.0 mm 0.00 in0.0 mm 0.00 in0.0 mm
03:07 PM 67.6°F19.8°C 63.3°F17.4°C 86% 2.9 mph ESE4.7 kmh ESE 10.1 mph16.3 kmh 30.14 in1020.7 mb 0.00 in0.0 mm 0.00 in0.0 mm 0.00 in0.0 mm
03:22 PM 67.5°F19.7°C 63.1°F17.3°C 86% 3.8 mph E6.1 kmh E 10.1 mph16.3 kmh 30.14 in1020.7 mb 0.00 in0.0 mm 0.00 in0.0 mm 0.00 in0.0 mm
03:37 PM 67.6°F19.8°C 63.3°F17.4°C 86% 0.2 mph SE0.3 kmh SE 4.9 mph7.9 kmh 30.14 in1020.7 mb 0.00 in0.0 mm 0.00 in0.0 mm 0.00 in0.0 mm
03:53 PM 67.8°F19.9°C 63.5°F17.5°C 86% 2.2 mph S3.5 kmh S 7.6 mph12.2 kmh 30.14 in1020.7 mb 0.00 in0.0 mm 0.00 in0.0 mm 0.00 in0.0 mm
04:08 PM 67.8°F19.9°C 62.8°F17.1°C 84% 2.5 mph ESE4.0 kmh ESE 7.6 mph12.2 kmh 30.13 in1020.3 mb 0.00 in0.0 mm 0.00 in0.0 mm 0.00 in0.0 mm
04:23 PM 68.0°F20.0°C 63.0°F17.2°C 84% 2.5 mph SSE4.0 kmh SSE 7.6 mph12.2 kmh 30.12 in1020.0 mb 0.00 in0.0 mm 0.00 in0.0 mm 0.00 in0.0 mm
04:38 PM 68.0°F20.0°C 63.3°F17.4°C 85% 3.4 mph SSE5.5 kmh SSE 7.6 mph12.2 kmh 30.13 in1020.3 mb 0.00 in0.0 mm 0.00 in0.0 mm 0.00 in0.0 mm
04:53 PM 68.0°F20.0°C 63.0°F17.2°C 84% 2.9 mph SSE4.7 kmh SSE 7.6 mph12.2 kmh 30.12 in1020.0 mb 0.00 in0.0 mm 0.00 in0.0 mm 0.00 in0.0 mm
05:09 PM 68.0°F20.0°C 63.0°F17.2°C 84% 4.0 mph S6.4 kmh S 7.6 mph12.2 kmh 30.12 in1020.0 mb 0.00 in0.0 mm 0.00 in0.0 mm 0.00 in0.0 mm
05:24 PM 68.0°F20.0°C 63.0°F17.2°C 84% 2.2 mph SE3.5 kmh SE 7.6 mph12.2 kmh 30.12 in1020.0 mb 0.00 in0.0 mm 0.00 in0.0 mm 0.00 in0.0 mm
05:39 PM 68.0°F20.0°C 63.0°F17.2°C 84% 2.5 mph SSE4.0 kmh SSE 4.9 mph7.9 kmh 30.12 in1020.0 mb 0.00 in0.0 mm 0.00 in0.0 mm 0.00 in0.0 mm
05:54 PM 67.8°F19.9°C 63.1°F17.3°C 85% 2.9 mph SE4.7 kmh SE 7.6 mph12.2 kmh 30.12 in1020.0 mb 0.00 in0.0 mm 0.00 in0.0 mm 0.00 in0.0 mm
06:09 PM 67.5°F19.7°C 63.1°F17.3°C 86% 3.8 mph S6.1 kmh S 7.6 mph12.2 kmh 30.12 in1020.0 mb 0.00 in0.0 mm 0.00 in0.0 mm 0.00 in0.0 mm
06:25 PM 67.3°F19.6°C 63.0°F17.2°C 86% 0.9 mph S1.4 kmh S 4.9 mph7.9 kmh 30.13 in1020.3 mb 0.00 in0.0 mm 0.00 in0.0 mm 0.00 in0.0 mm
06:40 PM 67.1°F19.5°C 62.8°F17.1°C 86% 1.3 mph SE2.1 kmh SE 4.9 mph7.9 kmh 30.13 in1020.3 mb 0.00 in0.0 mm 0.00 in0.0 mm 0.00 in0.0 mm
06:55 PM 67.1°F19.5°C 63.1°F17.3°C 87% 3.1 mph SE5.0 kmh SE 4.9 mph7.9 kmh 30.14 in1020.7 mb 0.00 in0.0 mm 0.00 in0.0 mm 0.00 in0.0 mm
07:10 PM 66.9°F19.4°C 63.0°F17.2°C 87% 1.3 mph SSE2.1 kmh SSE 4.9 mph7.9 kmh 30.14 in1020.7 mb 0.00 in0.0 mm 0.00 in0.0 mm 0.00 in0.0 mm
07:26 PM 66.7°F19.3°C 63.1°F17.3°C 88% 1.3 mph SE2.1 kmh SE 4.9 mph7.9 kmh 30.14 in1020.7 mb 0.00 in0.0 mm 0.00 in0.0 mm 0.00 in0.0 mm
07:41 PM 66.6°F19.2°C 63.0°F17.2°C 88% 1.3 mph S2.1 kmh S 4.9 mph7.9 kmh 30.14 in1020.7 mb 0.00 in0.0 mm 0.00 in0.0 mm 0.00 in0.0 mm
07:56 PM 66.4°F19.1°C 63.0°F17.2°C 89% 1.6 mph SSE2.6 kmh SSE 2.5 mph4.0 kmh 30.14 in1020.7 mb 0.00 in0.0 mm 0.00 in0.0 mm 0.00 in0.0 mm
08:11 PM 66.4°F19.1°C 63.0°F17.2°C 89% 1.6 mph SE2.6 kmh SE 4.9 mph7.9 kmh 30.15 in1021.0 mb 0.00 in0.0 mm 0.00 in0.0 mm 0.00 in0.0 mm
08:26 PM 66.2°F19.0°C 62.8°F17.1°C 89% Calm Calm 2.5 mph4.0 kmh 30.16 in1021.3 mb 0.00 in0.0 mm 0.00 in0.0 mm 0.00 in0.0 mm
08:42 PM 65.5°F18.6°C 60.3°F15.7°C 83% 1.3 mph NW2.1 kmh NW 4.9 mph7.9 kmh 30.17 in1021.7 mb 0.00 in0.0 mm 0.00 in0.0 mm 0.00 in0.0 mm
08:57 PM 65.1°F18.4°C 59.9°F15.5°C 83% 0.7 mph NW1.1 kmh NW 4.9 mph7.9 kmh 30.18 in1022.0 mb 0.00 in0.0 mm 0.00 in0.0 mm 0.00 in0.0 mm
09:12 PM 65.1°F18.4°C 59.9°F15.5°C 83% 1.3 mph N2.1 kmh N 2.5 mph4.0 kmh 30.18 in1022.0 mb 0.00 in0.0 mm 0.00 in0.0 mm 0.00 in0.0 mm
09:27 PM 64.9°F18.3°C 60.3°F15.7°C 85% 1.6 mph NW2.6 kmh NW 4.9 mph7.9 kmh 30.19 in1022.4 mb 0.00 in0.0 mm 0.00 in0.0 mm 0.00 in0.0 mm
09:42 PM 64.8°F18.2°C 60.4°F15.8°C 86% Calm Calm 4.9 mph7.9 kmh 30.19 in1022.4 mb 0.00 in0.0 mm 0.00 in0.0 mm 0.00 in0.0 mm
09:57 PM 64.6°F18.1°C 59.9°F15.5°C 85% Calm Calm 2.5 mph4.0 kmh 30.19 in1022.4 mb 0.00 in0.0 mm 0.00 in0.0 mm 0.00 in0.0 mm
10:12 PM 64.2°F17.9°C 59.5°F15.3°C 85% Calm Calm 2.5 mph4.0 kmh 30.18 in1022.0 mb 0.00 in0.0 mm 0.00 in0.0 mm 0.00 in0.0 mm
10:27 PM 63.9°F17.7°C 59.0°F15.0°C 84% 4.0 mph NW6.4 kmh NW 4.9 mph7.9 kmh 30.18 in1022.0 mb 0.00 in0.0 mm 0.00 in0.0 mm 0.00 in0.0 mm
10:43 PM 63.7°F17.6°C 58.5°F14.7°C 83% 3.8 mph NW6.1 kmh NW 7.6 mph12.2 kmh 30.19 in1022.4 mb 0.00 in0.0 mm 0.00 in0.0 mm 0.00 in0.0 mm
10:58 PM 63.3°F17.4°C 58.5°F14.7°C 84% 4.5 mph NNW7.2 kmh NNW 7.6 mph12.2 kmh 30.18 in1022.0 mb 0.00 in0.0 mm 0.00 in0.0 mm 0.00 in0.0 mm
11:13 PM 63.0°F17.2°C 57.7°F14.3°C 83% 4.5 mph N7.2 kmh N 7.6 mph12.2 kmh 30.18 in1022.0 mb 0.00 in0.0 mm 0.00 in0.0 mm 0.00 in0.0 mm
11:28 PM 62.2°F16.8°C 57.0°F13.9°C 83% 4.7 mph N7.6 kmh N 10.1 mph16.3 kmh 30.18 in1022.0 mb 0.00 in0.0 mm 0.00 in0.0 mm 0.00 in0.0 mm
11:43 PM 61.7°F16.5°C 56.1°F13.4°C 82% 5.4 mph NNW8.7 kmh NNW 10.1 mph16.3 kmh 30.18 in1022.0 mb 0.00 in0.0 mm 0.00 in0.0 mm 0.00 in0.0 mm
11:59 PM 61.7°F16.5°C 55.4°F13.0°C 80% 7.8 mph N12.6 kmh N 10.1 mph16.3 kmh 30.18 in1022.0 mb 0.00 in0.0 mm 0.00 in0.0 mm 0.00 in0.0 mm